createdAt,value
2019-05-14T00:00:14.313Z,73.8811
2019-05-14T00:01:17.244Z,73.3455
2019-05-14T00:02:21.402Z,73.3333
2019-05-14T00:03:24.292Z,73.6431
2019-05-14T00:04:27.332Z,73.1167
2019-05-14T00:05:32.196Z,72.7047
2019-05-14T00:06:34.287Z,72.5353
2019-05-14T00:07:37.303Z,72.0882
2019-05-14T00:08:41.804Z,71.9585
2019-05-14T00:09:45.343Z,72.0699
2019-05-14T00:10:48.262Z,71.6564
2019-05-14T00:11:51.412Z,71.5602
2019-05-14T00:12:54.270Z,71.3863
2019-05-14T00:13:57.309Z,70.9697
2019-05-14T00:15:02.134Z,70.6096
2019-05-14T00:16:05.308Z,70.7652
2019-05-14T00:17:08.307Z,70.6081
2019-05-14T00:18:11.727Z,70.1793
2019-05-14T00:19:15.304Z,70.0603
2019-05-14T00:20:18.329Z,69.5613
2019-05-14T00:21:21.295Z,69.4774
2019-05-14T00:22:24.274Z,69.2500
2019-05-14T00:23:27.297Z,69.4499
2019-05-14T00:24:32.254Z,69.4087
2019-05-14T00:25:35.342Z,69.4316
2019-05-14T00:26:39.342Z,68.7861
2019-05-14T00:27:42.294Z,69.2988
2019-05-14T00:28:45.288Z,68.7144
2019-05-14T00:29:48.317Z,68.5389
2019-05-14T00:30:52.379Z,68.2841
2019-05-14T00:31:55.286Z,68.9250
2019-05-14T00:32:58.354Z,68.9281
2019-05-14T00:34:01.734Z,68.8960
2019-05-14T00:35:05.319Z,68.7694
2019-05-14T00:36:08.274Z,68.7465
2019-05-14T00:37:11.684Z,68.8228
2019-05-14T00:38:14.293Z,68.9113
2019-05-14T00:39:16.340Z,68.8457
2019-05-14T00:40:19.351Z,68.7678
2019-05-14T00:41:23.342Z,68.9525
2019-05-14T00:42:26.325Z,69.1905
2019-05-14T00:43:29.290Z,68.9967
2019-05-14T00:44:32.558Z,69.0150
2019-05-14T00:45:35.347Z,69.3446
2019-05-14T00:46:38.319Z,69.2729
2019-05-14T00:47:41.917Z,69.5552
2019-05-14T00:48:45.261Z,69.8665
2019-05-14T00:49:48.354Z,69.7520
2019-05-14T00:50:51.778Z,69.8268
2019-05-14T00:51:55.295Z,69.6284
2019-05-14T00:52:58.303Z,69.6574
2019-05-14T00:54:01.701Z,69.4057
2019-05-14T00:55:05.274Z,69.8405
2019-05-14T00:56:08.356Z,70.1885
2019-05-14T00:57:11.836Z,70.5043
2019-05-14T00:58:16.285Z,70.2754
2019-05-14T00:59:21.520Z,70.4448
2019-05-14T01:00:23.274Z,70.9102
2019-05-14T01:01:26.344Z,70.6828
2019-05-14T01:02:29.271Z,70.4356
2019-05-14T01:03:32.610Z,70.4936
2019-05-14T01:04:35.278Z,70.6554
2019-05-14T01:05:38.283Z,70.7866
2019-05-14T01:06:42.033Z,70.8507
2019-05-14T01:07:45.317Z,70.9239
2019-05-14T01:08:47.348Z,70.8705
2019-05-14T01:09:52.397Z,70.7057
2019-05-14T01:10:55.329Z,70.6493
2019-05-14T01:11:58.301Z,70.5180
2019-05-14T01:13:01.437Z,70.3944
2019-05-14T01:14:04.308Z,70.8019
2019-05-14T01:15:10.745Z,71.0613
2019-05-14T01:16:15.327Z,70.5074
2019-05-14T01:17:18.330Z,71.0399
2019-05-14T01:18:21.888Z,71.1635
2019-05-14T01:19:25.293Z,70.9712
2019-05-14T01:20:27.328Z,70.9804
2019-05-14T01:21:31.218Z,71.1391
2019-05-14T01:22:34.307Z,71.0384
2019-05-14T01:23:37.307Z,71.0445
2019-05-14T01:24:41.719Z,70.7134
2019-05-14T01:25:47.317Z,70.8705
2019-05-14T01:26:52.250Z,70.7042
2019-05-14T01:27:55.291Z,70.6645
2019-05-14T01:28:58.277Z,70.4524
2019-05-14T01:30:02.039Z,70.7652
2019-05-14T01:31:05.296Z,70.4845
2019-05-14T01:32:08.332Z,70.8141
2019-05-14T01:33:11.874Z,70.6767
2019-05-14T01:34:15.318Z,70.9804
2019-05-14T01:35:18.278Z,70.8782
2019-05-14T01:36:21.577Z,70.7332
2019-05-14T01:37:24.278Z,70.6966
2019-05-14T01:38:27.323Z,70.9789
2019-05-14T01:39:32.093Z,71.4290
2019-05-14T01:40:35.279Z,70.9758
2019-05-14T01:41:38.325Z,70.5943
2019-05-14T01:42:41.741Z,70.2846
2019-05-14T01:43:45.299Z,70.5303
2019-05-14T01:44:48.278Z,70.3487
2019-05-14T01:45:52.454Z,70.3990
2019-05-14T01:46:55.261Z,69.4911
2019-05-14T01:47:58.307Z,69.4606
2019-05-14T01:49:01.659Z,69.4865
2019-05-14T01:50:04.286Z,69.7887
2019-05-14T01:51:07.338Z,69.6712
2019-05-14T01:52:11.277Z,69.6513
2019-05-14T01:53:14.318Z,69.6025
2019-05-14T01:54:17.284Z,69.6880
2019-05-14T01:55:21.905Z,69.3629
2019-05-14T01:56:25.316Z,69.5506
2019-05-14T01:57:28.317Z,70.0648
2019-05-14T01:58:31.358Z,69.3690
2019-05-14T01:59:34.293Z,69.4377
2019-05-14T02:00:37.318Z,69.8863
2019-05-14T02:01:41.503Z,67.7531
2019-05-14T02:02:44.314Z,67.6387
2019-05-14T02:03:47.274Z,68.2155
2019-05-14T02:04:51.330Z,68.5451
2019-05-14T02:05:54.304Z,68.7053
2019-05-14T02:06:57.328Z,68.6397
2019-05-14T02:08:01.714Z,68.1010
2019-05-14T02:09:05.290Z,68.5771
2019-05-14T02:10:08.296Z,68.2506
2019-05-14T02:11:12.121Z,67.7668
2019-05-14T02:12:15.381Z,66.8635
2019-05-14T02:13:18.268Z,67.1427
2019-05-14T02:14:22.030Z,66.5126
2019-05-14T02:15:36.305Z,66.0273
2019-05-14T02:16:33.279Z,65.1621
2019-05-14T02:17:36.281Z,65.6474
2019-05-14T02:18:41.457Z,65.7374
2019-05-14T02:19:44.274Z,65.0111
2019-05-14T02:20:47.275Z,65.5421
2019-05-14T02:21:51.436Z,65.6825
2019-05-14T02:22:54.259Z,65.1713
2019-05-14T02:23:56.311Z,64.9454
2019-05-14T02:24:59.264Z,65.4261
2019-05-14T02:26:02.690Z,65.0568
2019-05-14T02:27:06.315Z,65.0828
2019-05-14T02:28:11.414Z,64.9012
2019-05-14T02:29:14.284Z,65.5543
2019-05-14T02:30:20.282Z,65.4994
2019-05-14T02:31:25.288Z,65.3315
2019-05-14T02:32:29.753Z,65.7786
2019-05-14T02:33:33.310Z,65.9907
2019-05-14T02:34:39.459Z,66.2226
2019-05-14T02:35:43.323Z,66.1494
2019-05-14T02:36:49.425Z,66.4515
2019-05-14T02:37:52.337Z,66.9139
2019-05-14T02:38:55.291Z,66.6392
2019-05-14T02:39:59.667Z,66.3188
2019-05-14T02:41:03.317Z,65.3956
2019-05-14T02:42:09.570Z,65.8976
2019-05-14T02:43:13.313Z,65.5421
2019-05-14T02:44:18.881Z,66.0365
2019-05-14T02:45:21.272Z,65.9586
2019-05-14T02:46:24.339Z,66.3874
2019-05-14T02:47:29.885Z,66.4302
2019-05-14T02:48:33.401Z,66.0090
2019-05-14T02:49:39.340Z,66.7079
2019-05-14T02:50:43.285Z,66.6819
2019-05-14T02:51:50.070Z,66.4988
2019-05-14T02:52:53.348Z,66.4286
2019-05-14T02:53:58.919Z,66.9551
2019-05-14T02:55:02.297Z,67.1839
2019-05-14T02:56:05.313Z,66.8101
2019-05-14T02:57:10.378Z,66.8101
2019-05-14T02:58:14.329Z,66.4286
2019-05-14T02:59:19.599Z,66.5904
2019-05-14T03:00:23.305Z,66.7781
2019-05-14T03:01:26.285Z,66.8406
2019-05-14T03:02:29.808Z,67.1672
2019-05-14T03:03:33.302Z,67.0802
2019-05-14T03:04:39.181Z,66.8818
2019-05-14T03:05:42.300Z,66.8696
2019-05-14T03:06:45.317Z,67.0665
2019-05-14T03:07:49.989Z,66.8467
2019-05-14T03:08:53.343Z,66.8040
2019-05-14T03:09:59.194Z,67.1305
2019-05-14T03:11:01.330Z,66.9978
2019-05-14T03:12:04.291Z,67.5135
2019-05-14T03:13:09.493Z,67.1794
2019-05-14T03:14:12.319Z,67.7699
2019-05-14T03:15:15.308Z,67.8340
2019-05-14T03:16:26.036Z,68.3986
2019-05-14T03:17:29.768Z,68.8273
2019-05-14T03:18:33.370Z,68.7282
2019-05-14T03:19:36.275Z,68.6442
2019-05-14T03:20:39.019Z,68.9601
2019-05-14T03:21:42.303Z,68.8106
2019-05-14T03:23:01.365Z,68.6320
2019-05-14T03:23:53.326Z,68.8563
2019-05-14T03:24:59.621Z,68.8609
2019-05-14T03:26:03.312Z,69.1493
2019-05-14T03:27:09.322Z,69.5476
2019-05-14T03:28:13.327Z,69.2225
2019-05-14T03:29:19.351Z,69.4682
2019-05-14T03:30:23.498Z,69.3034
2019-05-14T03:31:32.255Z,69.2485
2019-05-14T03:32:34.297Z,69.3690
2019-05-14T03:33:43.010Z,69.3919
2019-05-14T03:34:45.305Z,69.9718
2019-05-14T03:35:56.360Z,70.1503
2019-05-14T03:37:02.367Z,70.3105
2019-05-14T03:38:04.315Z,69.8451
2019-05-14T03:39:10.251Z,70.4356
2019-05-14T03:40:13.297Z,70.4311
2019-05-14T03:41:19.429Z,70.8232
2019-05-14T03:42:22.271Z,71.2825
2019-05-14T03:43:25.332Z,71.4458
2019-05-14T03:44:29.112Z,71.8456
2019-05-14T03:45:32.339Z,72.0272
2019-05-14T03:46:45.678Z,71.9173
2019-05-14T03:47:43.309Z,72.1065
2019-05-14T03:48:49.038Z,71.8914
2019-05-14T03:49:52.284Z,71.8639
2019-05-14T03:50:55.313Z,72.2103
2019-05-14T03:52:00.452Z,71.7433
2019-05-14T03:53:03.318Z,71.9829
2019-05-14T03:54:11.390Z,72.5032
2019-05-14T03:55:14.281Z,72.9198
2019-05-14T03:56:19.237Z,73.0114
2019-05-14T03:57:22.286Z,73.0770
2019-05-14T03:58:25.298Z,73.5348
2019-05-14T03:59:29.307Z,73.4325
2019-05-14T04:00:32.290Z,72.9259
2019-05-14T04:01:35.275Z,73.0541
2019-05-14T04:02:39.116Z,73.1685
2019-05-14T04:03:42.313Z,73.2311
2019-05-14T04:04:45.308Z,73.6385
2019-05-14T04:05:49.382Z,73.9773
2019-05-14T04:06:52.305Z,74.1527
2019-05-14T04:07:55.307Z,74.3084
2019-05-14T04:09:00.626Z,74.3297
2019-05-14T04:10:04.287Z,74.4411
2019-05-14T04:11:09.624Z,74.3847
2019-05-14T04:12:13.297Z,74.0642
2019-05-14T04:13:19.585Z,74.2901
2019-05-14T04:14:23.296Z,74.3252
2019-05-14T04:15:29.643Z,74.9752
2019-05-14T04:16:33.332Z,74.5510
2019-05-14T04:17:38.783Z,74.9813
2019-05-14T04:18:44.326Z,74.4228
2019-05-14T04:19:49.270Z,74.4717
2019-05-14T04:20:52.300Z,74.6197
2019-05-14T04:21:55.313Z,74.6365
2019-05-14T04:23:00.006Z,74.6319
2019-05-14T04:24:03.330Z,74.3938
2019-05-14T04:25:06.300Z,74.6273
2019-05-14T04:26:09.584Z,74.6822
2019-05-14T04:27:13.126Z,74.5129
2019-05-14T04:28:19.288Z,74.9111
2019-05-14T04:29:22.291Z,75.0515
2019-05-14T04:30:25.327Z,74.7433
2019-05-14T04:31:29.831Z,74.6822
2019-05-14T04:32:33.413Z,75.1385
2019-05-14T04:33:39.051Z,74.7341
2019-05-14T04:34:41.305Z,74.9813
2019-05-14T04:35:44.274Z,74.9477
2019-05-14T04:36:50.076Z,74.9203
2019-05-14T04:37:53.287Z,74.8653
2019-05-14T04:38:56.299Z,74.9584
2019-05-14T04:39:59.470Z,74.6746
2019-05-14T04:41:02.312Z,74.7662
2019-05-14T04:42:05.310Z,75.3262
2019-05-14T04:43:10.153Z,75.2026
2019-05-14T04:44:13.331Z,75.0088
2019-05-14T04:45:19.414Z,75.2575
2019-05-14T04:46:22.289Z,75.2651
2019-05-14T04:47:31.862Z,74.8837
2019-05-14T04:48:37.596Z,75.2285
2019-05-14T04:49:41.378Z,75.1110
2019-05-14T04:50:44.292Z,74.9020
2019-05-14T04:51:50.180Z,74.8928
2019-05-14T04:52:53.281Z,75.2651
2019-05-14T04:53:59.613Z,75.3582
2019-05-14T04:55:03.324Z,75.2743
2019-05-14T04:56:08.732Z,75.3765
2019-05-14T04:57:12.296Z,75.4299
2019-05-14T04:58:15.322Z,74.9126
2019-05-14T04:59:19.135Z,74.6929
2019-05-14T05:00:22.299Z,74.8577
2019-05-14T05:01:25.359Z,74.9310
2019-05-14T05:02:30.110Z,74.9035
2019-05-14T05:03:33.286Z,75.2056
2019-05-14T05:04:36.301Z,74.6181
2019-05-14T05:05:39.531Z,74.9203
2019-05-14T05:06:42.318Z,74.3938
2019-05-14T05:07:45.326Z,74.2855
2019-05-14T05:08:49.806Z,74.4991
2019-05-14T05:09:53.319Z,74.5312
2019-05-14T05:10:59.658Z,73.9284
2019-05-14T05:12:03.317Z,73.9513
2019-05-14T05:13:09.031Z,73.8582
2019-05-14T05:14:12.308Z,73.1121
2019-05-14T05:15:14.329Z,73.2906
2019-05-14T05:16:19.224Z,73.1502
2019-05-14T05:17:38.920Z,73.2036
2019-05-14T05:18:32.302Z,73.0159
2019-05-14T05:19:35.354Z,72.6833
2019-05-14T05:20:39.444Z,73.3791
2019-05-14T05:21:42.287Z,72.7825
2019-05-14T05:22:45.299Z,72.5673
2019-05-14T05:23:49.221Z,72.6101
2019-05-14T05:24:52.361Z,72.9534
2019-05-14T05:25:55.299Z,72.7779
2019-05-14T05:26:58.619Z,72.9244
2019-05-14T05:28:01.303Z,73.0129
2019-05-14T05:29:07.208Z,72.7596
2019-05-14T05:30:12.339Z,72.9030
2019-05-14T05:31:15.305Z,72.1431
2019-05-14T05:32:19.412Z,72.0455
2019-05-14T05:33:23.305Z,72.5216
2019-05-14T05:34:28.288Z,72.0287
2019-05-14T05:35:31.311Z,71.7342
2019-05-14T05:36:34.300Z,71.6075
2019-05-14T05:37:38.447Z,71.0491
2019-05-14T05:38:42.310Z,70.6050
2019-05-14T05:39:45.308Z,70.8186
2019-05-14T05:40:48.685Z,70.5852
2019-05-14T05:41:51.311Z,70.8339
2019-05-14T05:42:54.300Z,70.4936
2019-05-14T05:43:58.915Z,70.0557
2019-05-14T05:45:02.303Z,69.9443
2019-05-14T05:46:05.329Z,70.0053
2019-05-14T05:47:09.269Z,70.1701
2019-05-14T05:48:12.303Z,69.9855
2019-05-14T05:49:15.288Z,70.0221
2019-05-14T05:50:19.379Z,69.7246
2019-05-14T05:51:23.332Z,69.4728
2019-05-14T05:52:28.239Z,69.5506
2019-05-14T05:53:31.275Z,69.1340
2019-05-14T05:54:34.291Z,68.6854
2019-05-14T05:55:39.275Z,68.6732
2019-05-14T05:56:42.358Z,69.0379
2019-05-14T05:57:45.334Z,68.7923
2019-05-14T05:58:48.952Z,68.4352
2019-05-14T05:59:52.309Z,68.2063
2019-05-14T06:00:55.287Z,68.2795
2019-05-14T06:01:58.800Z,68.4947
2019-05-14T06:03:02.310Z,68.3436
2019-05-14T06:04:05.295Z,68.0919
2019-05-14T06:05:08.334Z,67.8798
2019-05-14T06:06:13.388Z,67.4220
2019-05-14T06:07:18.392Z,67.9225
2019-05-14T06:08:21.304Z,67.3808
2019-05-14T06:09:24.334Z,68.2246
2019-05-14T06:10:29.179Z,67.4174
2019-05-14T06:11:32.322Z,67.8218
2019-05-14T06:12:34.339Z,67.7943
2019-05-14T06:13:39.016Z,68.1605
2019-05-14T06:14:42.281Z,67.6509
2019-05-14T06:15:48.818Z,66.7826
2019-05-14T06:16:53.321Z,66.8559
2019-05-14T06:18:13.359Z,66.8650
2019-05-14T06:19:08.201Z,67.5135
2019-05-14T06:20:11.292Z,66.6163
2019-05-14T06:21:14.303Z,66.6850
2019-05-14T06:22:18.924Z,67.1382
2019-05-14T06:23:22.351Z,66.8971
2019-05-14T06:24:25.319Z,66.8040
2019-05-14T06:25:31.336Z,66.3325
2019-05-14T06:26:34.317Z,66.6224
2019-05-14T06:27:38.070Z,66.3279
2019-05-14T06:28:41.141Z,66.2913
2019-05-14T06:29:44.278Z,66.0456
2019-05-14T06:30:48.413Z,66.0227
2019-05-14T06:31:51.292Z,65.9312
2019-05-14T06:32:54.351Z,66.0685
2019-05-14T06:33:59.109Z,66.1738
2019-05-14T06:35:02.333Z,66.3981
2019-05-14T06:36:08.716Z,66.7781
2019-05-14T06:37:12.336Z,66.5126
2019-05-14T06:38:15.314Z,66.6957
2019-05-14T06:39:18.419Z,66.4805
2019-05-14T06:40:21.344Z,66.5751
2019-05-14T06:41:24.294Z,65.9037
2019-05-14T06:42:28.507Z,63.6179
2019-05-14T06:43:32.350Z,64.4938
2019-05-14T06:44:35.305Z,64.1917
2019-05-14T06:45:39.143Z,64.4007
2019-05-14T06:46:43.356Z,63.8697
2019-05-14T06:47:48.621Z,63.7110
2019-05-14T06:48:52.362Z,64.5884
2019-05-14T06:49:55.303Z,64.4389
2019-05-14T06:50:58.536Z,64.6952
2019-05-14T06:52:01.312Z,62.9603
2019-05-14T06:53:04.295Z,63.6515
2019-05-14T06:54:09.206Z,63.6057
2019-05-14T06:55:12.295Z,62.8458
2019-05-14T06:56:18.802Z,62.2278
2019-05-14T06:57:23.278Z,63.1159
2019-05-14T06:58:26.304Z,62.7802
2019-05-14T06:59:29.357Z,61.9669
2019-05-14T07:00:31.348Z,62.0478
2019-05-14T07:01:34.317Z,62.0249
2019-05-14T07:02:43.240Z,61.4710
2019-05-14T07:03:45.337Z,61.3535
2019-05-14T07:04:48.541Z,61.8647
2019-05-14T07:05:51.319Z,61.4359
2019-05-14T07:06:54.298Z,62.0706
2019-05-14T07:07:59.704Z,62.8122
2019-05-14T07:09:03.300Z,62.4781
2019-05-14T07:10:08.739Z,61.4206
2019-05-14T07:11:12.252Z,61.2985
2019-05-14T07:12:15.331Z,62.4979
2019-05-14T07:13:18.939Z,62.8672
2019-05-14T07:14:21.302Z,63.1739
2019-05-14T07:15:24.336Z,61.0422
2019-05-14T07:16:28.682Z,60.2716
2019-05-14T07:17:32.302Z,61.0101
2019-05-14T07:18:46.398Z,61.9165
2019-05-14T07:19:43.351Z,60.7538
2019-05-14T07:20:48.359Z,60.4608
2019-05-14T07:21:51.314Z,60.2991
2019-05-14T07:22:54.308Z,60.1205
2019-05-14T07:23:56.317Z,59.5544
2019-05-14T07:24:59.328Z,60.8896
2019-05-14T07:26:02.292Z,60.8408
2019-05-14T07:27:05.324Z,59.5666
2019-05-14T07:28:08.860Z,58.8388
2019-05-14T07:29:12.312Z,60.2548
2019-05-14T07:30:15.323Z,59.4308
2019-05-14T07:31:18.793Z,59.5483
2019-05-14T07:32:22.284Z,59.4934
2019-05-14T07:33:25.510Z,59.4034
2019-05-14T07:34:28.440Z,60.5478
2019-05-14T07:35:31.327Z,61.2604
2019-05-14T07:36:34.339Z,58.6191
2019-05-14T07:37:39.703Z,59.8733
2019-05-14T07:38:43.327Z,59.4339
2019-05-14T07:39:48.506Z,60.3449
2019-05-14T07:40:52.343Z,59.7925
2019-05-14T07:41:55.282Z,60.1251
2019-05-14T07:42:58.430Z,57.7447
2019-05-14T07:44:01.297Z,55.9472
2019-05-14T07:45:04.300Z,56.3867
2019-05-14T07:46:08.515Z,57.4533
2019-05-14T07:47:12.319Z,56.0754
2019-05-14T07:48:15.318Z,56.0098
2019-05-14T07:49:18.567Z,57.0916
2019-05-14T07:50:21.362Z,56.7529
2019-05-14T07:51:24.303Z,56.5087
2019-05-14T07:52:28.517Z,55.6619
2019-05-14T07:53:38.793Z,56.0235
2019-05-14T07:54:40.299Z,56.5774
2019-05-14T07:55:43.360Z,56.9665
2019-05-14T07:56:49.075Z,57.1221
2019-05-14T07:57:54.294Z,57.6181
2019-05-14T07:58:58.468Z,57.6913
2019-05-14T08:00:03.328Z,57.7493
2019-05-14T08:01:06.325Z,56.2722
2019-05-14T08:02:09.517Z,55.1186
2019-05-14T08:03:12.291Z,55.6497
2019-05-14T08:04:17.217Z,54.4854
2019-05-14T08:05:22.310Z,55.6298
2019-05-14T08:06:24.388Z,56.0006
2019-05-14T08:07:28.180Z,55.3567
2019-05-14T08:08:31.291Z,55.6634
2019-05-14T08:09:34.300Z,55.9976
2019-05-14T08:10:36.328Z,56.0342
2019-05-14T08:11:38.865Z,54.3862
2019-05-14T08:12:42.325Z,53.3318
2019-05-14T08:13:45.345Z,52.6741
2019-05-14T08:15:09.032Z,53.3867
2019-05-14T08:15:55.323Z,53.1304
2019-05-14T08:16:59.554Z,52.5185
2019-05-14T08:18:03.293Z,52.9931
2019-05-14T08:19:20.885Z,53.3135
2019-05-14T08:20:14.337Z,52.7367
2019-05-14T08:21:19.351Z,52.9885
2019-05-14T08:22:23.337Z,53.0175
2019-05-14T08:23:28.207Z,52.0317
2019-05-14T08:24:31.286Z,52.7779
2019-05-14T08:25:34.315Z,52.0592
2019-05-14T08:26:38.181Z,53.4508
2019-05-14T08:27:41.367Z,53.4051
2019-05-14T08:28:44.284Z,52.8191
2019-05-14T08:29:48.703Z,52.9351
2019-05-14T08:30:52.302Z,52.8969
2019-05-14T08:31:55.337Z,52.7962
2019-05-14T08:32:58.419Z,52.0836
2019-05-14T08:34:04.633Z,53.8399
2019-05-14T08:35:09.082Z,52.1187
2019-05-14T08:36:12.295Z,51.4794
2019-05-14T08:37:15.292Z,51.5785
2019-05-14T08:38:18.539Z,51.5297
2019-05-14T08:39:22.258Z,51.6625
2019-05-14T08:40:25.324Z,51.8990
2019-05-14T08:41:28.780Z,49.3187
2019-05-14T08:42:34.062Z,48.8563
2019-05-14T08:43:39.791Z,49.8619
2019-05-14T08:44:47.937Z,51.0658
2019-05-14T08:45:53.312Z,51.5328
2019-05-14T08:46:58.436Z,48.5298
2019-05-14T08:48:02.317Z,49.1951
2019-05-14T08:49:05.340Z,49.3446
2019-05-14T08:50:09.116Z,49.8985
2019-05-14T08:51:12.393Z,51.2139
2019-05-14T08:52:18.969Z,51.3817
2019-05-14T08:53:22.334Z,50.0313
2019-05-14T08:54:25.335Z,50.3212
2019-05-14T08:55:29.666Z,48.7785
2019-05-14T08:56:33.305Z,47.0207
2019-05-14T08:57:38.611Z,48.4306
2019-05-14T08:58:42.323Z,47.8675
2019-05-14T08:59:45.337Z,47.3228
2019-05-14T09:00:48.479Z,50.0862
2019-05-14T09:02:01.792Z,47.9774
2019-05-14T09:02:59.327Z,47.6051
2019-05-14T09:04:02.305Z,46.9108
2019-05-14T09:05:05.502Z,46.8696
2019-05-14T09:06:10.367Z,45.8579
2019-05-14T09:07:13.341Z,45.6199
2019-05-14T09:08:18.957Z,42.5895
2019-05-14T09:09:22.325Z,42.1363
2019-05-14T09:10:25.366Z,40.8545
2019-05-14T09:11:35.026Z,42.3728
2019-05-14T09:12:38.617Z,41.1978
2019-05-14T09:13:42.355Z,41.6739
2019-05-14T09:14:45.324Z,41.5488
2019-05-14T09:15:48.928Z,42.8855
2019-05-14T09:16:52.358Z,41.9577
2019-05-14T09:17:55.314Z,40.7858
2019-05-14T09:18:58.278Z,41.9715
2019-05-14T09:20:06.735Z,39.0600
2019-05-14T09:21:09.296Z,40.1663
2019-05-14T09:22:12.373Z,41.2345
2019-05-14T09:23:15.296Z,40.1907
2019-05-14T09:24:18.377Z,40.0748
2019-05-14T09:25:21.292Z,39.3805
2019-05-14T09:26:24.325Z,40.5936
2019-05-14T09:27:29.246Z,40.3769
2019-05-14T09:28:32.303Z,41.2665
2019-05-14T09:29:35.335Z,40.5798
2019-05-14T09:30:38.333Z,40.4639
2019-05-14T09:31:41.342Z,41.6358
2019-05-14T09:32:44.354Z,38.3856
2019-05-14T09:33:49.480Z,38.6252
2019-05-14T09:34:52.322Z,38.6648
2019-05-14T09:36:09.554Z,40.1266
2019-05-14T09:37:03.354Z,40.4273
2019-05-14T09:38:08.510Z,40.1175
2019-05-14T09:39:12.257Z,39.8917
2019-05-14T09:40:14.381Z,39.2691
2019-05-14T09:41:18.549Z,38.5595
2019-05-14T09:42:21.286Z,38.5687
2019-05-14T09:43:24.346Z,39.4385
2019-05-14T09:44:29.317Z,37.8637
2019-05-14T09:45:32.319Z,38.8083
2019-05-14T09:46:35.351Z,37.1908
2019-05-14T09:47:38.736Z,36.9879
2019-05-14T09:48:42.279Z,36.2325
2019-05-14T09:49:45.310Z,37.9690
2019-05-14T09:50:48.977Z,36.8978
2019-05-14T09:51:52.318Z,36.7086
2019-05-14T09:52:55.336Z,38.0880
2019-05-14T09:53:58.926Z,35.2438
2019-05-14T09:55:02.339Z,37.2671
2019-05-14T09:56:05.359Z,36.7453
2019-05-14T09:57:08.495Z,36.6354
2019-05-14T09:58:11.311Z,39.4446
2019-05-14T09:59:14.316Z,37.6959
2019-05-14T10:00:18.683Z,37.0123
2019-05-14T10:01:22.355Z,37.2091
2019-05-14T10:02:25.316Z,36.7788
2019-05-14T10:03:27.312Z,37.2030
2019-05-14T10:04:30.361Z,38.1445
2019-05-14T10:05:33.274Z,34.9752
2019-05-14T10:06:39.015Z,36.2478
2019-05-14T10:07:42.291Z,35.3780
2019-05-14T10:08:45.321Z,35.1888
2019-05-14T10:09:49.184Z,35.1675
2019-05-14T10:10:52.310Z,36.0906
2019-05-14T10:11:55.337Z,33.6004
2019-05-14T10:13:01.350Z,34.3893
2019-05-14T10:14:05.328Z,34.7280
2019-05-14T10:15:08.843Z,33.5225
2019-05-14T10:16:12.320Z,33.0877
2019-05-14T10:17:15.358Z,34.3236
2019-05-14T10:18:19.039Z,32.8405
2019-05-14T10:19:22.314Z,31.5221
2019-05-14T10:20:40.238Z,31.8715
2019-05-14T10:21:33.311Z,33.4676
2019-05-14T10:22:36.369Z,31.6060
2019-05-14T10:23:39.280Z,32.2423
2019-05-14T10:24:42.317Z,34.7692
2019-05-14T10:25:45.346Z,32.7810
2019-05-14T10:26:49.156Z,31.6335
2019-05-14T10:27:52.367Z,31.9249
2019-05-14T10:28:54.307Z,32.6314
2019-05-14T10:29:58.859Z,33.0663
2019-05-14T10:31:03.808Z,33.4600
2019-05-14T10:32:08.737Z,32.7138
2019-05-14T10:33:15.082Z,33.4371
2019-05-14T10:34:19.228Z,34.7631
2019-05-14T10:35:22.301Z,35.0713
2019-05-14T10:36:25.283Z,35.4269
2019-05-14T10:37:28.792Z,36.2051
2019-05-14T10:38:32.329Z,36.0998
2019-05-14T10:39:35.352Z,34.6365
2019-05-14T10:40:38.701Z,35.3765
2019-05-14T10:41:42.335Z,34.8638
2019-05-14T10:42:44.358Z,35.9091
2019-05-14T10:43:49.736Z,36.0052
2019-05-14T10:44:53.285Z,34.7143
2019-05-14T10:45:58.001Z,35.3735
2019-05-14T10:47:01.322Z,36.9162
2019-05-14T10:48:04.351Z,36.4080
2019-05-14T10:49:19.996Z,36.1593
2019-05-14T10:50:15.331Z,33.9345
2019-05-14T10:51:18.354Z,34.8516
2019-05-14T10:52:23.313Z,33.8384
2019-05-14T10:53:25.377Z,35.9503
2019-05-14T10:54:29.268Z,35.6466
2019-05-14T10:55:32.317Z,35.0896
2019-05-14T10:56:35.278Z,36.2615
2019-05-14T10:57:38.305Z,35.2483
2019-05-14T10:58:41.348Z,34.7005
2019-05-14T10:59:44.300Z,35.0011
2019-05-14T11:00:49.309Z,34.5037
2019-05-14T11:01:54.352Z,33.9071
2019-05-14T11:02:57.329Z,35.0561
2019-05-14T11:04:00.314Z,33.7118
2019-05-14T11:05:03.301Z,32.7230
2019-05-14T11:06:06.333Z,32.6802
2019-05-14T11:07:09.314Z,33.1518
2019-05-14T11:08:12.314Z,34.4259
2019-05-14T11:09:15.304Z,34.9889
2019-05-14T11:10:19.523Z,36.5591
2019-05-14T11:11:22.286Z,35.4421
2019-05-14T11:12:25.357Z,35.9731
2019-05-14T11:13:29.242Z,35.1858
2019-05-14T11:14:32.362Z,35.8526
2019-05-14T11:15:35.336Z,35.1156
2019-05-14T11:16:41.790Z,34.8928
2019-05-14T11:17:45.267Z,34.1329
2019-05-14T11:18:49.744Z,35.3216
2019-05-14T11:19:53.361Z,34.7814
2019-05-14T11:21:16.171Z,35.8862
2019-05-14T11:22:04.318Z,36.1044
2019-05-14T11:23:08.979Z,35.1446
2019-05-14T11:24:12.329Z,34.9187
2019-05-14T11:25:15.313Z,35.9548
2019-05-14T11:26:18.427Z,34.9935
2019-05-14T11:27:22.297Z,35.4589
2019-05-14T11:28:25.267Z,34.3420
2019-05-14T11:29:29.580Z,34.9981
2019-05-14T11:30:33.315Z,36.1456
2019-05-14T11:31:38.872Z,35.3140
2019-05-14T11:32:42.321Z,34.6120
2019-05-14T11:33:45.306Z,33.4829
2019-05-14T11:34:48.341Z,34.7951
2019-05-14T11:35:51.306Z,34.5159
2019-05-14T11:36:54.324Z,34.5541
2019-05-14T11:37:58.866Z,35.4971
2019-05-14T11:39:04.018Z,34.7601
2019-05-14T11:40:08.743Z,34.3893
2019-05-14T11:41:12.337Z,35.7839
2019-05-14T11:42:15.306Z,35.1858
2019-05-14T11:43:18.341Z,34.6487
2019-05-14T11:44:21.301Z,34.9096
2019-05-14T11:45:23.305Z,36.1379
2019-05-14T11:46:39.977Z,34.3969
2019-05-14T11:47:34.319Z,36.0235
2019-05-14T11:48:38.948Z,36.7559
2019-05-14T11:49:42.349Z,38.4268
2019-05-14T11:50:45.324Z,35.7885
2019-05-14T11:52:00.722Z,36.7910
2019-05-14T11:52:58.331Z,36.9162
2019-05-14T11:54:01.285Z,36.4614
2019-05-14T11:55:04.334Z,35.8267
2019-05-14T11:56:08.629Z,37.0336
2019-05-14T11:57:12.307Z,35.5932
2019-05-14T11:58:15.379Z,35.9228
2019-05-14T11:59:18.969Z,34.6914
2019-05-14T12:00:25.719Z,34.7417
2019-05-14T12:01:29.787Z,34.4488
2019-05-14T12:02:33.267Z,36.4706
2019-05-14T12:03:39.043Z,34.1192
2019-05-14T12:04:42.317Z,35.0988
2019-05-14T12:05:45.279Z,36.0693
2019-05-14T12:06:48.288Z,33.7118
2019-05-14T12:07:51.290Z,34.9966
2019-05-14T12:08:54.298Z,35.0347
2019-05-14T12:09:57.346Z,33.1670
2019-05-14T12:11:00.332Z,33.6736
2019-05-14T12:12:03.279Z,33.0373
2019-05-14T12:13:08.402Z,35.0759
2019-05-14T12:14:12.340Z,32.9564
2019-05-14T12:15:15.297Z,34.7768
2019-05-14T12:16:18.328Z,33.9132
2019-05-14T12:17:21.388Z,35.2682
2019-05-14T12:18:24.298Z,35.4879
2019-05-14T12:19:28.371Z,35.2499
2019-05-14T12:20:31.352Z,36.2142
2019-05-14T12:21:34.308Z,35.0301
2019-05-14T12:22:39.356Z,33.6065
2019-05-14T12:23:42.323Z,35.0240
2019-05-14T12:24:45.336Z,35.0698
2019-05-14T12:25:49.063Z,34.6303
2019-05-14T12:26:52.290Z,35.7259
2019-05-14T12:27:55.309Z,35.8999
2019-05-14T12:28:59.409Z,32.6482
2019-05-14T12:30:01.338Z,34.3069
2019-05-14T12:31:04.303Z,32.2103
2019-05-14T12:32:12.804Z,33.4508
2019-05-14T12:33:15.311Z,34.6899
2019-05-14T12:34:18.595Z,33.2723
2019-05-14T12:35:21.316Z,34.0002
2019-05-14T12:36:24.308Z,34.1924
2019-05-14T12:37:28.941Z,34.3740
2019-05-14T12:38:32.266Z,35.7931
2019-05-14T12:39:35.252Z,36.9650
2019-05-14T12:40:38.435Z,36.8658
2019-05-14T12:41:41.293Z,37.2854
2019-05-14T12:42:44.299Z,36.6079
2019-05-14T12:43:47.330Z,37.1771
2019-05-14T12:44:50.315Z,37.5998
2019-05-14T12:45:53.361Z,37.2946
2019-05-14T12:46:58.592Z,37.2045
2019-05-14T12:48:02.309Z,35.8022
2019-05-14T12:49:05.315Z,32.5292
2019-05-14T12:50:09.367Z,33.6660
2019-05-14T12:51:12.346Z,32.3064